Time;durP1;ratioP1;P1;durP2;ratioP2;P2;SDS_P1;SDS_P2;PMS_P1;PMS_P2;Temp;Humidity;BMP_temperature;BMP_pressure;BME280_temperature;BME280_humidity;BME280_pressure;Samples;Min_cycle;Max_cycle;Signal;HPM_P1;HPM_P2
2023/10/07 00:00:49;;;;;;;8.75;4.30;;;;;;;14.34;90.96;102023.28;4965891;28;20035;-72
2023/10/07 00:03:18;;;;;;;10.65;4.43;;;;;;;14.34;90.88;102028.59;4966568;28;20043;-71
2023/10/07 00:05:50;;;;;;;12.75;4.72;;;;;;;14.33;91.09;102021.53;4966961;28;20055;-70
2023/10/07 00:08:21;;;;;;;10.65;4.32;;;;;;;14.32;91.02;102019.81;4967329;28;20050;-70
2023/10/07 00:10:49;;;;;;;9.45;4.30;;;;;;;14.33;91.25;102004.75;4966463;28;20039;-71
2023/10/07 00:13:19;;;;;;;10.30;4.65;;;;;;;14.33;91.24;102004.75;4966140;28;20597;-70
2023/10/07 00:15:50;;;;;;;8.25;4.53;;;;;;;14.33;91.40;102004.75;4954931;28;20122;-70
2023/10/07 00:18:23;;;;;;;11.10;4.60;;;;;;;14.32;91.46;101995.03;4968152;28;20044;-71
2023/10/07 00:20:53;;;;;;;10.40;4.68;;;;;;;14.33;91.75;101995.03;4968020;28;20062;-71
2023/10/07 00:23:23;;;;;;;11.35;4.65;;;;;;;14.34;91.86;101987.91;4974174;28;20116;-70
2023/10/07 00:25:55;;;;;;;9.60;4.47;;;;;;;14.34;92.16;101975.53;4975397;28;20042;-73
2023/10/07 00:30:55;;;;;;;10.90;4.97;;;;;;;14.34;92.47;101983.50;4976520;28;20125;-73
2023/10/07 00:33:22;;;;;;;11.35;5.28;;;;;;;14.33;92.19;101975.56;4966730;28;20064;-73
2023/10/07 00:35:53;;;;;;;11.18;5.18;;;;;;;14.33;92.39;101979.09;4969626;28;20499;-73
2023/10/07 00:38:23;;;;;;;13.02;4.90;;;;;;;14.33;92.61;101999.44;4971314;28;20051;-73
2023/10/07 00:40:56;;;;;;;9.23;4.78;;;;;;;14.34;92.96;102009.13;4969674;28;20043;-72
2023/10/07 00:43:30;;;;;;;11.38;4.80;;;;;;;14.33;92.68;102018.88;4972446;28;20051;-72
2023/10/07 00:46:10;;;;;;;14.70;5.28;;;;;;;14.33;92.80;101999.44;4961884;28;20046;-74
2023/10/07 00:48:45;;;;;;;9.88;5.03;;;;;;;14.35;92.77;101997.63;4960804;28;20073;-73
2023/10/07 00:51:17;;;;;;;9.77;4.65;;;;;;;14.32;92.92;102000.34;4969132;28;20047;-73
2023/10/07 00:53:53;;;;;;;12.25;5.38;;;;;;;14.32;93.14;102000.34;4970087;28;20049;-73
2023/10/07 00:56:25;;;;;;;10.95;5.03;;;;;;;14.27;93.00;101997.81;4982593;28;20094;-72
2023/10/07 00:58:53;;;;;;;13.73;5.22;;;;;;;14.26;92.94;101999.63;4951040;28;20074;-74
2023/10/07 01:01:21;;;;;;;14.23;4.75;;;;;;;14.25;93.43;102003.19;4977611;28;20047;-74
2023/10/07 01:03:48;;;;;;;14.02;5.32;;;;;;;14.23;93.22;102002.34;4967910;28;20050;-73
2023/10/07 01:06:25;;;;;;;12.40;5.45;;;;;;;14.22;93.34;102000.59;4969055;28;20034;-72
2023/10/07 01:09:09;;;;;;;13.93;5.13;;;;;;;14.24;93.51;101992.63;4971129;28;20531;-73
2023/10/07 01:11:46;;;;;;;11.80;5.10;;;;;;;14.24;93.94;101980.22;4972722;28;20042;-72
2023/10/07 01:14:14;;;;;;;9.88;5.15;;;;;;;14.24;93.88;101974.91;4968683;28;20049;-73
2023/10/07 01:16:44;;;;;;;11.23;5.72;;;;;;;14.22;93.77;101976.72;4970419;28;20067;-73
2023/10/07 01:19:19;;;;;;;11.98;5.15;;;;;;;14.22;94.22;101974.06;4968123;28;20046;-72
2023/10/07 01:21:55;;;;;;;11.10;5.15;;;;;;;14.21;94.57;101972.34;4966139;28;20039;-72
2023/10/07 01:27:22;;;;;;;18.48;6.47;;;;;;;14.16;94.99;101955.69;4969895;28;20047;-73
2023/10/07 01:33:22;;;;;;;13.40;5.65;;;;;;;14.12;95.59;101968.16;4967333;28;20058;-73
2023/10/07 01:35:32;;;;;;;14.10;6.07;;;;;;;14.12;95.58;101981.44;4963671;28;20043;-73
2023/10/07 01:38:06;;;;;;;14.05;6.15;;;;;;;14.09;95.68;101984.16;4967793;28;20566;-73
2023/10/07 01:43:19;;;;;;;14.52;6.40;;;;;;;14.10;96.05;102007.13;4969053;28;20134;-73
2023/10/07 01:45:49;;;;;;;13.52;6.32;;;;;;;14.12;96.05;102000.00;4966783;28;20219;-73
2023/10/07 01:48:17;;;;;;;10.68;6.55;;;;;;;14.10;96.23;101999.16;4973467;28;20070;-73
2023/10/07 01:50:45;;;;;;;11.68;6.20;;;;;;;14.11;96.36;102002.66;4970083;28;20841;-73
2023/10/07 01:53:16;;;;;;;15.27;7.15;;;;;;;14.13;96.33;101998.19;4969783;28;20047;-72
2023/10/07 01:55:43;;;;;;;17.75;7.72;;;;;;;14.12;96.55;101999.09;4968763;28;20046;-72
2023/10/07 01:58:14;;;;;;;14.00;7.03;;;;;;;14.10;96.67;101979.72;4968448;28;20042;-72
2023/10/07 02:00:46;;;;;;;14.95;7.25;;;;;;;14.07;96.93;101978.00;4982129;28;20046;-72
2023/10/07 02:03:23;;;;;;;12.80;7.05;;;;;;;14.07;97.36;101977.16;4967964;28;20065;-72
2023/10/07 02:05:52;;;;;;;16.75;7.93;;;;;;;14.04;97.43;101964.84;4964190;28;20043;-72
2023/10/07 02:08:22;;;;;;;14.20;7.68;;;;;;;14.06;97.68;101972.78;4968197;28;20042;-72
2023/10/07 02:10:57;;;;;;;15.02;7.72;;;;;;;14.05;97.83;101968.38;4966958;28;20039;-71
2023/10/07 02:13:28;;;;;;;;;;;;;;;14.05;98.29;101976.31;4977500;28;20043;-72
2023/10/07 02:15:55;;;;;;;17.35;8.13;;;;;;;14.06;98.04;101970.13;4967057;28;19989;-71
2023/10/07 02:18:27;;;;;;;15.00;8.13;;;;;;;14.07;98.34;101974.50;4968237;28;20511;-73
2023/10/07 02:21:07;;;;;;;21.20;8.57;;;;;;;14.09;98.71;101978.00;4965906;28;20081;-73
2023/10/07 02:23:37;;;;;;;16.90;8.20;;;;;;;14.09;98.69;101972.69;4967916;28;20126;-73
2023/10/07 02:26:06;;;;;;;18.33;8.43;;;;;;;14.11;98.88;101976.16;4981254;28;20045;-73
2023/10/07 02:28:34;;;;;;;17.15;8.85;;;;;;;14.10;99.02;101963.78;4967861;28;20043;-72
2023/10/07 02:31:15;;;;;;;13.50;8.25;;;;;;;14.13;99.16;101961.97;4967413;28;20153;-73
2023/10/07 02:33:42;;;;;;;18.10;8.48;;;;;;;14.18;99.33;101968.91;4967576;28;20063;-73
2023/10/07 02:36:28;;;;;;;15.48;8.98;;;;;;;14.25;99.58;101970.47;4966335;28;20077;-73
2023/10/07 02:39:04;;;;;;;17.35;9.07;;;;;;;14.29;99.65;101974.78;4949459;28;20054;-73
2023/10/07 02:41:34;;;;;;;18.52;8.90;;;;;;;14.34;99.32;101977.31;4961775;28;20719;-72
2023/10/07 02:44:05;;;;;;;17.48;8.98;;;;;;;14.37;99.07;101971.91;4969397;28;20531;-72
2023/10/07 02:46:32;;;;;;;15.85;8.98;;;;;;;14.38;100.00;101966.56;4967487;28;20555;-72
2023/10/07 02:49:10;;;;;;;15.65;8.50;;;;;;;14.42;99.62;101964.69;4967587;28;20046;-71
2023/10/07 02:51:45;;;;;;;15.48;9.48;;;;;;;14.44;99.58;101969.06;4967405;28;20042;-71
2023/10/07 02:54:17;;;;;;;16.00;9.32;;;;;;;14.45;99.74;101970.78;4968552;28;20043;-71
2023/10/07 02:56:55;;;;;;;;;;;;;;;14.46;99.55;101971.66;4966566;28;20178;-71
2023/10/07 02:59:26;;;;;;;17.98;9.05;;;;;;;14.48;99.71;101971.59;4967718;28;20021;-71
2023/10/07 03:04:58;;;;;;;17.25;9.48;;;;;;;14.52;100.00;101981.22;4965369;28;20034;-71
2023/10/07 03:07:26;;;;;;;19.33;10.35;;;;;;;14.56;99.93;101977.56;4968117;28;20061;-72
2023/10/07 03:10:04;;;;;;;18.42;11.27;;;;;;;14.59;100.00;101965.09;4965405;28;20066;-73
2023/10/07 03:12:36;;;;;;;18.85;10.85;;;;;;;14.63;100.00;101967.63;4968649;28;20085;-74
2023/10/07 03:15:20;;;;;;;20.02;11.52;;;;;;;14.65;100.00;101960.50;4967582;28;20070;-74
2023/10/07 03:17:49;;;;;;;20.08;11.82;;;;;;;14.68;100.00;101963.09;4968785;28;20051;-73
2023/10/07 03:23:17;;;;;;;21.23;12.38;;;;;;;14.74;100.00;101954.94;4967464;28;20086;-73
2023/10/07 03:28:30;;;;;;;21.60;13.23;;;;;;;14.80;100.00;101960.09;4967595;28;20148;-73
2023/10/07 03:30:58;;;;;;;21.10;13.18;;;;;;;14.79;100.00;101958.34;4968605;28;20077;-73
2023/10/07 03:39:00;;;;;;;24.63;13.80;;;;;;;14.88;100.00;101952.75;4965946;28;20454;-72
2023/10/07 03:41:41;;;;;;;26.00;14.32;;;;;;;14.87;100.00;101945.72;4965748;28;20085;-73
2023/10/07 03:44:08;;;;;;;24.25;13.88;;;;;;;14.89;100.00;101943.88;4966339;28;20089;-72
2023/10/07 03:46:36;;;;;;;22.65;14.57;;;;;;;14.93;100.00;101952.63;4966814;28;20046;-73
2023/10/07 03:49:06;;;;;;;23.38;13.60;;;;;;;14.94;100.00;101950.81;4965898;28;20046;-72
2023/10/07 03:51:35;;;;;;;24.40;14.50;;;;;;;14.94;100.00;101949.03;4960292;28;20051;-72
2023/10/07 03:54:24;;;;;;;22.42;13.98;;;;;;;14.96;100.00;101947.19;4967155;28;20049;-73
2023/10/07 03:56:51;;;;;;;24.67;15.70;;;;;;;14.98;100.00;101944.50;4966563;28;20051;-73
2023/10/07 03:59:18;;;;;;;25.38;14.75;;;;;;;15.00;100.00;101945.34;4975562;28;20399;-73
2023/10/07 04:01:45;;;;;;;26.25;15.23;;;;;;;14.98;100.00;101949.81;4983044;28;20041;-73
2023/10/07 04:04:13;;;;;;;23.02;14.52;;;;;;;15.01;100.00;101952.34;4968179;28;20121;-73
2023/10/07 04:06:41;;;;;;;20.70;15.40;;;;;;;15.00;100.00;101940.88;4964409;28;20418;-73
2023/10/07 04:09:09;;;;;;;23.63;14.98;;;;;;;15.03;100.00;101947.88;4968494;28;20124;-72
2023/10/07 04:11:39;;;;;;;27.75;16.70;;;;;;;15.04;100.00;101952.25;4970026;28;20117;-73
2023/10/07 04:14:19;;;;;;;26.15;14.77;;;;;;;15.04;100.00;101950.50;4970516;28;20168;-73
2023/10/07 04:16:50;;;;;;;24.92;16.08;;;;;;;15.07;100.00;101941.56;4969300;28;20532;-73
2023/10/07 04:21:50;;;;;;;20.17;14.13;;;;;;;15.07;100.00;101939.75;4969345;28;20054;-73
2023/10/07 04:24:18;;;;;;;27.35;16.35;;;;;;;15.09;100.00;101937.06;4962602;28;20046;-73
2023/10/07 04:27:03;;;;;;;23.08;16.55;;;;;;;15.11;100.00;101934.34;4971359;28;20049;-73
2023/10/07 04:29:33;;;;;;;;;;;;;;;15.10;100.00;101933.50;4971283;28;20119;-73
2023/10/07 04:32:21;;;;;;;24.13;16.52;;;;;;;15.12;100.00;101928.97;4970139;28;20023;-75
2023/10/07 04:37:47;;;;;;;26.35;16.88;;;;;;;15.18;100.00;101946.50;4969283;28;20816;-74
2023/10/07 04:43:25;;;;;;;25.95;17.40;;;;;;;15.19;100.00;101949.13;4974566;28;20051;-75
2023/10/07 04:45:48;;;;;;;24.38;17.42;;;;;;;15.23;100.00;101949.91;4969944;28;20523;-74
2023/10/07 04:51:13;;;;;;;25.77;16.77;;;;;;;15.25;100.00;101953.38;4969652;28;20143;-75
2023/10/07 04:53:41;;;;;;;27.85;17.30;;;;;;;15.26;100.00;101956.91;4970580;28;20046;-75
2023/10/07 04:56:10;;;;;;;26.85;17.42;;;;;;;15.29;100.00;101948.84;4973914;28;20046;-74
2023/10/07 04:58:39;;;;;;;27.90;18.23;;;;;;;15.28;100.00;101952.41;4977931;28;20041;-73
2023/10/07 05:01:56;;;;;;;23.48;16.88;;;;;;;15.30;100.00;101951.44;4964516;28;20039;-73
2023/10/07 05:03:58;;;;;;;23.20;16.08;;;;;;;15.32;100.00;101944.28;4971957;28;20134;-73
2023/10/07 05:06:25;;;;;;;26.23;17.92;;;;;;;15.33;100.00;101953.13;4967455;28;20043;-73
2023/10/07 05:08:54;;;;;;;28.77;17.58;;;;;;;15.37;100.00;101955.63;4963732;28;20497;-73
2023/10/07 05:11:21;;;;;;;28.35;16.80;;;;;;;15.37;100.00;101960.06;4967577;28;20142;-73
2023/10/07 05:13:48;;;;;;;22.92;17.48;;;;;;;15.38;100.00;101953.84;4965785;28;20550;-74
2023/10/07 05:16:15;;;;;;;31.83;17.27;;;;;;;15.40;100.00;101959.09;4966080;28;20418;-73
2023/10/07 05:18:42;;;;;;;28.80;16.25;;;;;;;15.42;100.00;101957.28;4964100;28;20039;-73
2023/10/07 05:21:11;;;;;;;23.48;17.20;;;;;;;15.43;100.00;101959.88;4963697;28;20404;-73
2023/10/07 05:23:41;;;;;;;29.75;17.92;;;;;;;15.46;100.00;101948.28;4964419;28;20035;-74
2023/10/07 05:26:09;;;;;;;31.65;17.92;;;;;;;15.50;100.00;101952.56;4967276;28;20039;-73
2023/10/07 05:28:39;;;;;;;26.45;17.73;;;;;;;15.51;100.00;101949.88;4960762;28;20416;-75
2023/10/07 05:31:08;;;;;;;25.90;16.63;;;;;;;15.53;100.00;101952.47;4963735;28;20047;-73
2023/10/07 05:33:35;;;;;;;26.80;17.67;;;;;;;15.55;100.00;101957.72;4963525;28;20120;-74
2023/10/07 05:36:13;;;;;;;24.58;16.70;;;;;;;15.58;100.00;101950.50;4962165;28;20094;-73
2023/10/07 05:38:44;;;;;;;27.15;18.10;;;;;;;15.57;100.00;101948.78;4961809;28;20036;-73
2023/10/07 05:41:12;;;;;;;25.75;17.33;;;;;;;15.59;100.00;101940.75;4970586;28;20054;-74
2023/10/07 05:43:48;;;;;;;23.15;17.15;;;;;;;15.60;100.00;101937.19;4969689;28;20046;-74
2023/10/07 05:46:17;;;;;;;26.33;16.55;;;;;;;15.56;100.00;101933.78;4967644;28;20047;-74
2023/10/07 05:48:46;;;;;;;26.45;16.98;;;;;;;15.59;100.00;101938.97;4969336;28;20043;-73
2023/10/07 05:51:14;;;;;;;26.25;16.45;;;;;;;15.59;100.00;101944.28;4968238;28;20074;-74
2023/10/07 05:53:48;;;;;;;24.60;16.60;;;;;;;15.58;100.00;101928.41;4969310;28;20043;-75
2023/10/07 05:56:15;;;;;;;25.23;17.27;;;;;;;15.58;100.00;101928.41;4971249;28;20069;-74
2023/10/07 05:58:46;;;;;;;29.20;16.27;;;;;;;15.59;100.00;101928.34;4968861;28;20038;-74
2023/10/07 06:01:14;;;;;;;25.75;16.55;;;;;;;15.61;100.00;101922.97;4965634;28;20467;-75
2023/10/07 06:03:43;;;;;;;30.02;16.08;;;;;;;15.60;100.00;101923.91;4957485;28;20043;-72
2023/10/07 06:06:10;;;;;;;23.67;15.07;;;;;;;15.63;100.00;101927.31;4962384;28;20046;-72
2023/10/07 06:08:38;;;;;;;25.75;15.13;;;;;;;15.65;100.00;101925.47;4964276;28;20045;-73
2023/10/07 06:11:05;;;;;;;21.38;13.07;;;;;;;15.67;100.00;101934.25;4965942;28;20841;-72
2023/10/07 06:13:33;;;;;;;24.00;14.23;;;;;;;15.69;100.00;101936.88;4967627;28;20051;-72
2023/10/07 06:16:04;;;;;;;24.58;13.45;;;;;;;15.72;100.00;101943.88;4965605;28;20197;-72
2023/10/07 06:18:34;;;;;;;23.05;13.40;;;;;;;15.75;100.00;101941.97;4965035;28;20050;-71
2023/10/07 06:21:24;;;;;;;20.58;12.32;;;;;;;15.78;100.00;101948.97;4964670;28;20043;-71
2023/10/07 06:23:54;;;;;;;23.15;12.23;;;;;;;15.78;100.00;101971.13;4965871;28;20664;-71
2023/10/07 06:26:21;;;;;;;20.95;11.82;;;;;;;15.82;100.00;101967.41;4967506;28;20043;-72
2023/10/07 06:28:51;;;;;;;20.15;11.00;;;;;;;15.87;100.00;101969.09;4967226;28;20072;-72
2023/10/07 06:31:22;;;;;;;20.63;11.00;;;;;;;15.90;100.00;101979.63;4968467;28;20499;-73
2023/10/07 06:33:59;;;;;;;16.85;10.85;;;;;;;15.94;100.00;101974.16;4965952;28;20058;-73
2023/10/07 06:36:32;;;;;;;15.93;10.93;;;;;;;15.97;100.00;101973.16;4959737;28;20047;-72
2023/10/07 06:39:01;;;;;;;16.50;9.60;;;;;;;16.01;100.00;101985.44;4957975;28;20041;-73
2023/10/07 06:41:29;;;;;;;15.80;9.40;;;;;;;16.05;100.00;101975.56;4964145;28;20070;-71
2023/10/07 06:44:08;;;;;;;15.30;9.10;;;;;;;16.07;99.98;101979.91;4965616;28;20043;-70
2023/10/07 06:46:44;;;;;;;16.48;9.35;;;;;;;16.12;99.35;101982.38;4951697;28;20047;-70
2023/10/07 06:49:20;;;;;;;16.20;8.95;;;;;;;16.11;99.28;101980.66;4956198;28;20680;-70
2023/10/07 06:51:56;;;;;;;16.02;7.88;;;;;;;16.13;99.18;101990.31;4960115;28;20087;-70
2023/10/07 06:54:32;;;;;;;14.80;8.48;;;;;;;16.13;99.10;101968.16;4967410;28;20466;-70
2023/10/07 06:57:01;;;;;;;14.45;8.77;;;;;;;16.14;98.85;101968.09;4966642;28;20039;-70
2023/10/07 06:59:28;;;;;;;16.00;8.18;;;;;;;16.17;98.36;101968.91;4967298;28;20098;-70
2023/10/07 07:02:05;;;;;;;15.60;8.55;;;;;;;16.14;98.84;101975.22;4955456;28;20093;-70
2023/10/07 07:04:35;;;;;;;15.88;8.02;;;;;;;16.15;98.61;101987.59;4966721;28;20039;-70
2023/10/07 07:07:16;;;;;;;17.20;8.15;;;;;;;16.20;98.44;102003.41;4964896;28;20101;-71
2023/10/07 07:12:21;;;;;;;15.07;8.07;;;;;;;16.32;98.37;102007.41;4961148;28;20081;-71
2023/10/07 07:15:05;;;;;;;14.93;7.60;;;;;;;16.40;98.00;102000.00;4964462;28;20695;-70
2023/10/07 07:17:36;;;;;;;14.73;6.95;;;;;;;16.50;97.47;102003.22;4965761;28;20840;-71
2023/10/07 07:22:45;;;;;;;16.27;7.20;;;;;;;16.53;96.80;101998.66;4960430;28;20224;-70
2023/10/07 07:25:29;;;;;;;15.57;7.32;;;;;;;16.52;96.63;101993.38;4960254;28;20369;-70
2023/10/07 07:28:00;;;;;;;14.23;6.97;;;;;;;16.46;96.55;101994.47;4962050;28;20070;-70
2023/10/07 07:30:35;;;;;;;13.90;6.70;;;;;;;16.41;96.29;101992.00;4965202;28;20483;-70
2023/10/07 07:33:08;;;;;;;16.70;6.95;;;;;;;16.38;96.67;102002.75;4964474;28;20635;-70
2023/10/07 07:35:40;;;;;;;15.55;7.35;;;;;;;16.38;96.55;102005.41;4966653;28;20357;-70
2023/10/07 07:41:08;;;;;;;15.85;7.10;;;;;;;16.42;96.52;102004.38;4967714;28;20123;-70
2023/10/07 07:43:40;;;;;;;29.75;11.10;;;;;;;16.46;96.79;102002.47;4965442;28;20054;-70
2023/10/07 07:46:51;;;;;;;40.55;13.57;;;;;;;16.51;96.36;102008.47;4967133;28;20053;-70
2023/10/07 07:49:27;;;;;;;55.85;18.40;;;;;;;16.53;96.18;102003.97;4963217;28;20723;-70
2023/10/07 07:51:55;;;;;;;12.98;6.50;;;;;;;16.54;95.92;101989.75;4967280;28;20154;-69
2023/10/07 07:54:24;;;;;;;15.30;6.82;;;;;;;16.60;95.47;101986.84;4966841;28;20137;-70
2023/10/07 07:56:54;;;;;;;56.42;8.55;;;;;;;16.69;95.46;102004.25;4967259;28;20704;-70
2023/10/07 07:59:22;;;;;;;21.23;6.43;;;;;;;16.77;95.44;102004.00;4966977;28;20054;-71
2023/10/07 08:02:11;;;;;;;13.38;6.18;;;;;;;16.85;94.59;101995.69;4967705;28;20053;-71
2023/10/07 08:04:50;;;;;;;13.43;6.40;;;;;;;16.89;93.94;102006.16;4950226;28;20043;-71
2023/10/07 08:07:24;;;;;;;12.63;5.97;;;;;;;16.91;93.48;102006.13;4967211;28;20043;-70
2023/10/07 08:09:55;;;;;;;10.75;5.75;;;;;;;16.90;93.19;102010.56;4963897;28;20046;-70
2023/10/07 08:12:30;;;;;;;10.30;5.70;;;;;;;16.94;93.06;102023.78;4966296;28;20046;-70
2023/10/07 08:14:59;;;;;;;12.60;5.43;;;;;;;16.94;92.94;102018.47;4964679;28;20777;-71
2023/10/07 08:17:27;;;;;;;15.88;6.00;;;;;;;17.01;92.70;102025.28;4996898;28;20506;-71
2023/10/07 08:19:56;;;;;;;47.75;7.50;;;;;;;17.10;92.77;102026.75;4967568;28;20125;-70
2023/10/07 08:22:27;;;;;;;12.13;5.57;;;;;;;17.20;92.55;102020.13;4965078;28;20656;-71
2023/10/07 08:25:00;;;;;;;13.48;5.55;;;;;;;17.31;91.94;102015.22;4964714;28;20129;-71
2023/10/07 08:27:44;;;;;;;14.43;5.65;;;;;;;17.42;91.20;102014.78;4966422;28;20042;-70
2023/10/07 08:30:14;;;;;;;11.38;4.93;;;;;;;17.53;91.20;102025.03;4964486;28;20101;-70
2023/10/07 08:32:42;;;;;;;13.93;4.65;;;;;;;17.65;90.62;102019.16;4964117;28;20664;-71
2023/10/07 08:35:19;;;;;;;12.10;5.30;;;;;;;17.74;90.62;102025.06;4965219;28;20046;-71
2023/10/07 08:37:49;;;;;;;11.88;4.85;;;;;;;17.84;89.87;102019.28;4964272;28;20039;-71
2023/10/07 08:40:28;;;;;;;11.75;5.20;;;;;;;17.91;88.61;102006.56;4956245;28;20047;-70
2023/10/07 08:42:59;;;;;;;10.18;4.88;;;;;;;17.96;88.47;102001.00;4961279;28;20047;-70
2023/10/07 08:45:28;;;;;;;10.52;5.03;;;;;;;18.00;88.06;102003.50;4966416;28;20038;-70
2023/10/07 08:48:16;;;;;;;11.82;4.63;;;;;;;18.07;87.98;101997.91;4964261;28;20047;-71
2023/10/07 08:51:02;;;;;;;13.27;5.03;;;;;;;18.14;87.21;101994.06;4964584;28;20050;-71
2023/10/07 08:53:31;;;;;;;10.25;4.88;;;;;;;18.19;87.33;101991.19;4962544;28;20093;-71
2023/10/07 08:56:04;;;;;;;12.75;5.40;;;;;;;18.24;86.19;101981.16;4966567;28;20077;-71
2023/10/07 08:58:32;;;;;;;12.13;4.55;;;;;;;18.26;86.08;101992.63;4969345;28;20137;-71
2023/10/07 09:01:00;;;;;;;10.25;4.50;;;;;;;18.31;nan;101986.16;4969927;28;20046;-71
2023/10/07 09:03:29;;;;;;;11.90;5.05;;;;;;;18.38;85.88;101984.09;4963960;28;20042;-71
2023/10/07 09:06:06;;;;;;;13.82;4.28;;;;;;;18.46;84.96;101981.06;4969582;28;20422;-70
2023/10/07 09:08:35;;;;;;;11.20;4.45;;;;;;;18.52;85.40;101987.94;4968041;28;20575;-70
2023/10/07 09:11:23;;;;;;;9.85;4.68;;;;;;;18.60;84.33;101991.13;4970033;28;20158;-70
2023/10/07 09:13:55;;;;;;;9.63;4.10;;;;;;;18.64;83.39;101992.69;4963000;28;20144;-70
2023/10/07 09:16:32;;;;;;;10.27;4.23;;;;;;;18.70;83.76;101992.41;4975968;28;20046;-69
2023/10/07 09:19:12;;;;;;;12.07;4.35;;;;;;;18.82;83.69;101998.13;4974952;28;20042;-71
2023/10/07 09:21:44;;;;;;;7.05;4.13;;;;;;;18.89;83.22;101997.75;4968981;28;20173;-71
2023/10/07 09:24:24;;;;;;;12.60;4.45;;;;;;;18.97;81.90;101988.56;4966723;28;20149;-72
2023/10/07 09:26:56;;;;;;;13.40;4.05;;;;;;;18.99;81.86;101982.19;4964989;28;20411;-71
2023/10/07 09:29:26;;;;;;;13.48;4.70;;;;;;;19.07;81.98;101989.84;4969359;28;20581;-71
2023/10/07 09:31:56;;;;;;;12.68;4.35;;;;;;;19.15;82.02;101993.00;4967869;28;20070;-71
2023/10/07 09:34:41;;;;;;;10.18;4.25;;;;;;;19.19;81.52;101983.88;4969823;28;20049;-71
2023/10/07 09:37:20;;;;;;;12.18;4.30;;;;;;;19.24;80.22;101989.00;4975570;28;20042;-72
2023/10/07 09:39:55;;;;;;;9.60;4.00;;;;;;;19.28;80.09;101987.06;4957002;28;20626;-72
2023/10/07 09:42:26;;;;;;;7.10;3.65;;;;;;;19.32;80.62;101978.84;4995611;28;20121;-72
2023/10/07 09:45:18;;;;;;;9.27;3.83;;;;;;;19.42;79.70;101991.75;4968937;28;20567;-72
2023/10/07 09:47:46;;;;;;;14.65;4.30;;;;;;;19.47;78.92;101995.03;4970201;28;20070;-71
2023/10/07 09:53:20;;;;;;;11.30;3.85;;;;;;;19.60;77.79;101996.16;4966738;28;20045;-71
2023/10/07 09:56:39;;;;;;;9.80;3.88;;;;;;;19.65;76.79;101993.25;4960201;28;20051;-72
2023/10/07 09:59:37;;;;;;;12.00;3.75;;;;;;;19.71;77.05;101999.16;4966629;28;20046;-72
2023/10/07 10:02:31;;;;;;;11.00;4.05;;;;;;;19.83;76.07;101986.13;4968164;28;20097;-71
2023/10/07 10:05:31;;;;;;;8.82;3.70;;;;;;;19.91;76.04;101991.06;4965480;28;20138;-71
2023/10/07 10:08:29;;;;;;;11.75;3.67;;;;;;;19.99;75.68;101988.91;4962678;28;20042;-70
2023/10/07 10:10:59;;;;;;;11.65;3.88;;;;;;;20.07;73.14;101994.72;4967631;28;20039;-71
2023/10/07 10:16:44;;;;;;;13.57;4.15;;;;;;;20.20;72.49;102010.97;4969674;28;20049;-71
2023/10/07 10:19:21;;;;;;;8.00;3.90;;;;;;;20.26;71.89;102007.13;4967693;28;20078;-70
2023/10/07 10:21:51;;;;;;;8.98;3.75;;;;;;;20.31;72.51;102007.72;4966129;28;20047;-71
2023/10/07 10:24:31;;;;;;;9.43;4.30;;;;;;;20.36;71.28;102005.69;4965717;28;20547;-72
2023/10/07 10:27:07;;;;;;;12.82;4.30;;;;;;;20.39;71.49;102018.91;4960543;28;20039;-71
2023/10/07 10:30:06;;;;;;;11.88;3.88;;;;;;;20.48;71.11;102018.41;4958094;28;20039;-71
2023/10/07 10:32:36;;;;;;;11.00;4.30;;;;;;;20.53;71.30;102007.47;4961168;28;20054;-71
2023/10/07 10:35:06;;;;;;;11.32;4.60;;;;;;;20.58;70.49;102008.06;4963648;28;20042;-71
2023/10/07 10:37:37;;;;;;;11.65;4.22;;;;;;;20.64;69.66;102004.19;4966689;28;20535;-71
2023/10/07 10:40:14;;;;;;;10.93;3.97;;;;;;;20.69;68.92;102009.28;4967867;28;20679;-71
2023/10/07 10:42:49;;;;;;;11.88;4.25;;;;;;;20.72;70.00;102004.63;4963384;28;20514;-71
2023/10/07 10:45:21;;;;;;;11.43;4.70;;;;;;;20.82;70.23;102005.03;4964459;28;20050;-70
2023/10/07 10:47:58;;;;;;;11.23;3.78;;;;;;;20.92;69.91;102002.69;4964821;28;20130;-71
2023/10/07 10:50:29;;;;;;;8.20;3.97;;;;;;;21.00;69.72;102007.63;4966919;28;20101;-70
2023/10/07 10:52:59;;;;;;;10.50;3.95;;;;;;;21.07;68.86;102012.56;4966414;28;20138;-70
2023/10/07 10:55:38;;;;;;;10.32;4.18;;;;;;;21.14;67.89;102010.41;4966545;28;20077;-71
2023/10/07 10:58:17;;;;;;;13.60;3.75;;;;;;;21.18;67.92;102001.22;4966553;28;20050;-72
2023/10/07 11:00:51;;;;;;;11.23;3.28;;;;;;;21.24;67.37;101994.63;4970591;28;20491;-73
2023/10/07 11:03:20;;;;;;;12.85;3.78;;;;;;;21.30;66.32;101990.75;4962103;28;20062;-70
2023/10/07 11:05:53;;;;;;;8.85;4.13;;;;;;;21.33;67.38;101991.41;4966607;28;20077;-69
2023/10/07 11:08:24;;;;;;;8.80;3.97;;;;;;;21.41;66.75;101994.56;4965519;28;20070;-69
2023/10/07 11:11:00;;;;;;;11.18;4.28;;;;;;;21.51;65.61;101991.31;4963753;28;20455;-70
2023/10/07 11:13:31;;;;;;;10.07;3.90;;;;;;;21.49;64.66;101988.72;4964108;28;20097;-69
2023/10/07 11:16:10;;;;;;;11.25;3.60;;;;;;;21.63;65.40;101985.25;4965697;28;20058;-69
2023/10/07 11:18:45;;;;;;;14.05;4.60;;;;;;;21.81;64.94;101982.44;4965325;28;20629;-70
2023/10/07 11:21:17;;;;;;;8.90;3.80;;;;;;;21.84;63.07;101975.06;4957390;28;20498;-70
2023/10/07 11:23:47;;;;;;;10.55;3.60;;;;;;;21.84;62.80;101976.88;4958065;28;20534;-70
2023/10/07 11:26:19;;;;;;;13.43;3.88;;;;;;;21.82;62.55;101978.81;4955362;28;20050;-69
2023/10/07 11:28:51;;;;;;;17.58;4.85;;;;;;;21.76;62.12;101989.88;4957449;28;20402;-70
2023/10/07 11:31:31;;;;;;;10.18;3.80;;;;;;;21.61;62.46;101973.75;4961243;28;20102;-70
2023/10/07 11:33:59;;;;;;;16.85;4.25;;;;;;;21.56;63.34;101979.38;4960358;28;20047;-69
2023/10/07 11:36:27;;;;;;;13.77;4.18;;;;;;;21.53;63.78;101975.97;4964888;28;20054;-69
2023/10/07 11:38:56;;;;;;;12.85;3.60;;;;;;;21.59;63.11;101974.78;4967621;28;20050;-71
2023/10/07 11:41:23;;;;;;;8.60;3.80;;;;;;;21.63;63.56;101979.88;4965796;28;20920;-69
2023/10/07 11:43:52;;;;;;;9.98;4.07;;;;;;;21.70;63.51;101989.31;4961482;28;20045;-70
2023/10/07 11:46:20;;;;;;;10.35;4.28;;;;;;;21.69;62.47;102003.69;4962750;28;20113;-70
2023/10/07 11:48:47;;;;;;;9.60;3.92;;;;;;;21.66;62.67;101993.13;4961245;28;20050;-69
2023/10/07 11:51:15;;;;;;;12.82;4.43;;;;;;;21.74;62.23;102007.91;4963497;28;20039;-69
2023/10/07 11:53:43;;;;;;;13.05;4.63;;;;;;;21.75;61.90;102002.47;4962832;28;20093;-70
2023/10/07 11:56:14;;;;;;;10.88;4.25;;;;;;;21.74;62.81;101998.03;4960721;28;20105;-70
2023/10/07 11:58:42;;;;;;;19.70;4.97;;;;;;;21.76;61.76;102000.63;4962615;28;20617;-70
2023/10/07 12:01:09;;;;;;;9.93;4.25;;;;;;;21.74;61.90;101999.84;4964945;28;20102;-71
2023/10/07 12:03:39;;;;;;;8.07;3.85;;;;;;;21.74;62.68;101997.16;4967126;28;20597;-69
2023/10/07 12:06:08;;;;;;;12.60;4.90;;;;;;;21.86;63.27;102001.81;4966206;28;20581;-69
2023/10/07 12:08:36;;;;;;;12.95;4.70;;;;;;;21.93;61.80;101995.09;4966241;28;20051;-69
2023/10/07 12:11:05;;;;;;;13.27;4.45;;;;;;;21.99;61.37;101981.31;4951781;28;20787;-69
2023/10/07 12:13:32;;;;;;;13.48;4.32;;;;;;;21.95;61.81;102000.41;4967389;28;20050;-70
2023/10/07 12:16:00;;;;;;;10.57;4.60;;;;;;;21.98;62.02;101997.50;4968100;28;20047;-69
2023/10/07 12:18:32;;;;;;;10.45;4.20;;;;;;;22.01;62.63;102003.56;4966835;28;20046;-69
2023/10/07 12:21:00;;;;;;;11.30;4.13;;;;;;;22.10;62.47;101995.91;4967832;28;20031;-70
2023/10/07 12:23:33;;;;;;;11.45;4.30;;;;;;;22.25;61.83;102004.84;4966433;28;20070;-70
2023/10/07 12:26:01;;;;;;;9.02;4.25;;;;;;;22.37;62.26;102004.09;4967068;28;20458;-70
2023/10/07 12:28:30;;;;;;;11.63;4.60;;;;;;;22.46;61.28;101999.97;4966423;28;20080;-71
2023/10/07 12:30:58;;;;;;;12.23;4.38;;;;;;;22.57;61.48;101988.59;4970556;28;20571;-70